sensor_id;sensor_type;location;lat;lon;timestamp;P1;durP1;ratioP1;P2;durP2;ratioP2
79249;SDS011;68679;51.030;7.584;2023-04-25T00:02:24;5.00;;;2.60;;
79249;SDS011;68679;51.030;7.584;2023-04-25T00:04:49;6.25;;;2.95;;
79249;SDS011;68679;51.030;7.584;2023-04-25T00:07:15;6.40;;;2.70;;
79249;SDS011;68679;51.030;7.584;2023-04-25T00:09:41;5.28;;;2.40;;
79249;SDS011;68679;51.030;7.584;2023-04-25T00:12:07;6.47;;;2.60;;
79249;SDS011;68679;51.030;7.584;2023-04-25T00:14:32;7.90;;;2.97;;
79249;SDS011;68679;51.030;7.584;2023-04-25T00:16:59;7.15;;;2.80;;
79249;SDS011;68679;51.030;7.584;2023-04-25T00:19:24;11.68;;;3.00;;
79249;SDS011;68679;51.030;7.584;2023-04-25T00:21:51;5.88;;;2.70;;
79249;SDS011;68679;51.030;7.584;2023-04-25T00:24:18;5.43;;;2.53;;
79249;SDS011;68679;51.030;7.584;2023-04-25T00:26:44;6.78;;;2.63;;
79249;SDS011;68679;51.030;7.584;2023-04-25T00:29:09;4.65;;;2.45;;
79249;SDS011;68679;51.030;7.584;2023-04-25T00:31:35;6.68;;;3.33;;
79249;SDS011;68679;51.030;7.584;2023-04-25T00:34:00;5.55;;;2.75;;
79249;SDS011;68679;51.030;7.584;2023-04-25T00:36:25;5.00;;;2.57;;
79249;SDS011;68679;51.030;7.584;2023-04-25T00:38:52;6.43;;;2.70;;
79249;SDS011;68679;51.030;7.584;2023-04-25T00:41:18;7.80;;;3.10;;
79249;SDS011;68679;51.030;7.584;2023-04-25T00:43:44;7.30;;;2.53;;
79249;SDS011;68679;51.030;7.584;2023-04-25T00:46:11;8.65;;;3.03;;
79249;SDS011;68679;51.030;7.584;2023-04-25T00:48:37;8.27;;;3.38;;
79249;SDS011;68679;51.030;7.584;2023-04-25T00:51:02;8.47;;;3.17;;
79249;SDS011;68679;51.030;7.584;2023-04-25T00:53:28;8.32;;;2.65;;
79249;SDS011;68679;51.030;7.584;2023-04-25T00:55:55;7.35;;;3.40;;
79249;SDS011;68679;51.030;7.584;2023-04-25T00:58:20;7.00;;;3.00;;
79249;SDS011;68679;51.030;7.584;2023-04-25T01:00:47;6.43;;;3.10;;
79249;SDS011;68679;51.030;7.584;2023-04-25T01:03:14;7.75;;;3.22;;
79249;SDS011;68679;51.030;7.584;2023-04-25T01:05:46;7.80;;;2.97;;
79249;SDS011;68679;51.030;7.584;2023-04-25T01:08:13;8.70;;;3.28;;
79249;SDS011;68679;51.030;7.584;2023-04-25T01:10:39;8.43;;;3.20;;
79249;SDS011;68679;51.030;7.584;2023-04-25T01:13:04;7.70;;;2.93;;
79249;SDS011;68679;51.030;7.584;2023-04-25T01:15:30;11.20;;;3.35;;
79249;SDS011;68679;51.030;7.584;2023-04-25T01:17:55;7.28;;;3.63;;
79249;SDS011;68679;51.030;7.584;2023-04-25T01:20:22;6.30;;;3.20;;
79249;SDS011;68679;51.030;7.584;2023-04-25T01:22:50;11.50;;;3.38;;
79249;SDS011;68679;51.030;7.584;2023-04-25T01:25:15;9.98;;;3.67;;
79249;SDS011;68679;51.030;7.584;2023-04-25T01:27:42;6.55;;;3.03;;
79249;SDS011;68679;51.030;7.584;2023-04-25T01:30:07;9.50;;;2.67;;
79249;SDS011;68679;51.030;7.584;2023-04-25T01:32:33;6.85;;;3.38;;
79249;SDS011;68679;51.030;7.584;2023-04-25T01:35:04;8.68;;;3.28;;
79249;SDS011;68679;51.030;7.584;2023-04-25T01:37:34;7.68;;;3.17;;
79249;SDS011;68679;51.030;7.584;2023-04-25T01:40:03;8.60;;;3.28;;
79249;SDS011;68679;51.030;7.584;2023-04-25T01:42:30;8.38;;;3.13;;
79249;SDS011;68679;51.030;7.584;2023-04-25T01:44:56;6.28;;;2.75;;
79249;SDS011;68679;51.030;7.584;2023-04-25T01:47:22;6.63;;;2.60;;
79249;SDS011;68679;51.030;7.584;2023-04-25T01:49:47;8.17;;;2.70;;
79249;SDS011;68679;51.030;7.584;2023-04-25T01:52:12;7.20;;;3.70;;
79249;SDS011;68679;51.030;7.584;2023-04-25T01:54:37;8.53;;;2.90;;
79249;SDS011;68679;51.030;7.584;2023-04-25T01:57:03;8.65;;;3.53;;
79249;SDS011;68679;51.030;7.584;2023-04-25T01:59:28;13.77;;;3.57;;
79249;SDS011;68679;51.030;7.584;2023-04-25T02:01:53;12.60;;;3.30;;
79249;SDS011;68679;51.030;7.584;2023-04-25T02:04:19;9.82;;;3.28;;
79249;SDS011;68679;51.030;7.584;2023-04-25T02:06:44;8.63;;;3.00;;
79249;SDS011;68679;51.030;7.584;2023-04-25T02:09:09;7.33;;;3.40;;
79249;SDS011;68679;51.030;7.584;2023-04-25T02:11:35;7.80;;;3.17;;
79249;SDS011;68679;51.030;7.584;2023-04-25T02:14:00;7.77;;;2.93;;
79249;SDS011;68679;51.030;7.584;2023-04-25T02:16:25;10.43;;;3.00;;
79249;SDS011;68679;51.030;7.584;2023-04-25T02:18:51;7.50;;;3.30;;
79249;SDS011;68679;51.030;7.584;2023-04-25T02:21:17;10.25;;;3.30;;
79249;SDS011;68679;51.030;7.584;2023-04-25T02:23:43;10.27;;;3.13;;
79249;SDS011;68679;51.030;7.584;2023-04-25T02:26:10;7.13;;;3.20;;
79249;SDS011;68679;51.030;7.584;2023-04-25T02:28:38;11.55;;;4.10;;
79249;SDS011;68679;51.030;7.584;2023-04-25T02:31:03;13.60;;;3.90;;
79249;SDS011;68679;51.030;7.584;2023-04-25T02:33:28;11.93;;;3.90;;
79249;SDS011;68679;51.030;7.584;2023-04-25T02:35:54;7.07;;;3.10;;
79249;SDS011;68679;51.030;7.584;2023-04-25T02:38:19;14.60;;;4.57;;
79249;SDS011;68679;51.030;7.584;2023-04-25T02:40:45;14.27;;;3.80;;
79249;SDS011;68679;51.030;7.584;2023-04-25T02:43:10;9.93;;;3.97;;
79249;SDS011;68679;51.030;7.584;2023-04-25T02:45:35;14.95;;;3.80;;
79249;SDS011;68679;51.030;7.584;2023-04-25T02:48:02;8.35;;;3.53;;
79249;SDS011;68679;51.030;7.584;2023-04-25T02:50:28;12.07;;;4.35;;
79249;SDS011;68679;51.030;7.584;2023-04-25T02:52:53;14.65;;;3.75;;
79249;SDS011;68679;51.030;7.584;2023-04-25T02:55:19;9.27;;;3.83;;
79249;SDS011;68679;51.030;7.584;2023-04-25T02:57:45;14.10;;;4.20;;
79249;SDS011;68679;51.030;7.584;2023-04-25T03:00:11;12.07;;;3.53;;
79249;SDS011;68679;51.030;7.584;2023-04-25T03:02:36;11.75;;;4.00;;
79249;SDS011;68679;51.030;7.584;2023-04-25T03:05:02;10.93;;;3.70;;
79249;SDS011;68679;51.030;7.584;2023-04-25T03:07:28;12.40;;;3.85;;
79249;SDS011;68679;51.030;7.584;2023-04-25T03:09:53;10.23;;;3.63;;
79249;SDS011;68679;51.030;7.584;2023-04-25T03:12:18;11.50;;;3.90;;
79249;SDS011;68679;51.030;7.584;2023-04-25T03:14:44;7.75;;;3.95;;
79249;SDS011;68679;51.030;7.584;2023-04-25T03:17:09;18.47;;;4.13;;
79249;SDS011;68679;51.030;7.584;2023-04-25T03:19:35;10.88;;;4.05;;
79249;SDS011;68679;51.030;7.584;2023-04-25T03:22:00;11.57;;;4.32;;
79249;SDS011;68679;51.030;7.584;2023-04-25T03:24:25;14.17;;;3.97;;
79249;SDS011;68679;51.030;7.584;2023-04-25T03:26:52;11.80;;;4.10;;
79249;SDS011;68679;51.030;7.584;2023-04-25T03:29:17;12.20;;;3.97;;
79249;SDS011;68679;51.030;7.584;2023-04-25T03:31:42;12.50;;;4.13;;
79249;SDS011;68679;51.030;7.584;2023-04-25T03:34:07;14.73;;;4.47;;
79249;SDS011;68679;51.030;7.584;2023-04-25T03:36:33;10.83;;;4.03;;
79249;SDS011;68679;51.030;7.584;2023-04-25T03:38:58;10.43;;;3.80;;
79249;SDS011;68679;51.030;7.584;2023-04-25T03:41:23;14.93;;;4.30;;
79249;SDS011;68679;51.030;7.584;2023-04-25T03:43:49;15.83;;;4.23;;
79249;SDS011;68679;51.030;7.584;2023-04-25T03:46:14;14.87;;;4.80;;
79249;SDS011;68679;51.030;7.584;2023-04-25T03:48:39;14.20;;;4.70;;
79249;SDS011;68679;51.030;7.584;2023-04-25T03:51:05;13.13;;;5.43;;
79249;SDS011;68679;51.030;7.584;2023-04-25T03:53:30;12.40;;;4.67;;
79249;SDS011;68679;51.030;7.584;2023-04-25T03:55:55;13.90;;;4.90;;
79249;SDS011;68679;51.030;7.584;2023-04-25T03:58:20;11.07;;;4.57;;
79249;SDS011;68679;51.030;7.584;2023-04-25T04:00:47;12.95;;;3.88;;
79249;SDS011;68679;51.030;7.584;2023-04-25T04:03:13;12.53;;;4.90;;
79249;SDS011;68679;51.030;7.584;2023-04-25T04:05:38;10.93;;;4.53;;
79249;SDS011;68679;51.030;7.584;2023-04-25T04:08:05;12.57;;;4.50;;
79249;SDS011;68679;51.030;7.584;2023-04-25T04:10:31;13.98;;;4.00;;
79249;SDS011;68679;51.030;7.584;2023-04-25T04:12:56;12.70;;;4.80;;
79249;SDS011;68679;51.030;7.584;2023-04-25T04:15:21;12.30;;;4.57;;
79249;SDS011;68679;51.030;7.584;2023-04-25T04:17:47;15.77;;;4.60;;
79249;SDS011;68679;51.030;7.584;2023-04-25T04:20:13;12.52;;;4.60;;
79249;SDS011;68679;51.030;7.584;2023-04-25T04:22:38;19.87;;;5.87;;
79249;SDS011;68679;51.030;7.584;2023-04-25T04:25:03;13.83;;;5.10;;
79249;SDS011;68679;51.030;7.584;2023-04-25T04:27:30;12.82;;;5.05;;
79249;SDS011;68679;51.030;7.584;2023-04-25T04:29:56;13.60;;;4.90;;
79249;SDS011;68679;51.030;7.584;2023-04-25T04:32:22;13.15;;;4.68;;
79249;SDS011;68679;51.030;7.584;2023-04-25T04:34:48;14.75;;;4.65;;
79249;SDS011;68679;51.030;7.584;2023-04-25T04:37:13;11.17;;;4.60;;
79249;SDS011;68679;51.030;7.584;2023-04-25T04:39:39;14.25;;;4.32;;
79249;SDS011;68679;51.030;7.584;2023-04-25T04:42:05;14.77;;;4.30;;
79249;SDS011;68679;51.030;7.584;2023-04-25T04:44:30;8.25;;;3.75;;
79249;SDS011;68679;51.030;7.584;2023-04-25T04:46:59;15.35;;;4.63;;
79249;SDS011;68679;51.030;7.584;2023-04-25T04:49:25;12.48;;;4.28;;
79249;SDS011;68679;51.030;7.584;2023-04-25T04:51:50;11.60;;;5.07;;
79249;SDS011;68679;51.030;7.584;2023-04-25T04:54:15;12.27;;;4.68;;
79249;SDS011;68679;51.030;7.584;2023-04-25T04:56:41;11.77;;;4.50;;
79249;SDS011;68679;51.030;7.584;2023-04-25T04:59:06;13.75;;;5.15;;
79249;SDS011;68679;51.030;7.584;2023-04-25T05:01:32;12.02;;;5.43;;
79249;SDS011;68679;51.030;7.584;2023-04-25T05:04:00;15.48;;;6.63;;
79249;SDS011;68679;51.030;7.584;2023-04-25T05:06:26;14.07;;;5.75;;
79249;SDS011;68679;51.030;7.584;2023-04-25T05:08:54;16.50;;;5.82;;
79249;SDS011;68679;51.030;7.584;2023-04-25T05:11:19;15.07;;;5.85;;
79249;SDS011;68679;51.030;7.584;2023-04-25T05:13:45;13.15;;;7.00;;
79249;SDS011;68679;51.030;7.584;2023-04-25T05:16:11;13.70;;;6.15;;
79249;SDS011;68679;51.030;7.584;2023-04-25T05:18:37;16.15;;;6.90;;
79249;SDS011;68679;51.030;7.584;2023-04-25T05:21:03;20.55;;;6.47;;
79249;SDS011;68679;51.030;7.584;2023-04-25T05:23:29;16.45;;;6.72;;
79249;SDS011;68679;51.030;7.584;2023-04-25T05:25:55;19.35;;;7.32;;
79249;SDS011;68679;51.030;7.584;2023-04-25T05:28:21;15.07;;;6.32;;
79249;SDS011;68679;51.030;7.584;2023-04-25T05:30:46;12.88;;;6.72;;
79249;SDS011;68679;51.030;7.584;2023-04-25T05:33:11;15.90;;;6.87;;
79249;SDS011;68679;51.030;7.584;2023-04-25T05:35:37;16.03;;;6.90;;
79249;SDS011;68679;51.030;7.584;2023-04-25T05:38:02;14.27;;;6.43;;
79249;SDS011;68679;51.030;7.584;2023-04-25T05:40:27;17.13;;;6.43;;
79249;SDS011;68679;51.030;7.584;2023-04-25T05:42:53;16.43;;;7.30;;
79249;SDS011;68679;51.030;7.584;2023-04-25T05:45:18;13.67;;;5.90;;
79249;SDS011;68679;51.030;7.584;2023-04-25T05:47:43;14.20;;;6.70;;
79249;SDS011;68679;51.030;7.584;2023-04-25T05:50:08;21.90;;;6.70;;
79249;SDS011;68679;51.030;7.584;2023-04-25T05:52:34;19.88;;;7.85;;
79249;SDS011;68679;51.030;7.584;2023-04-25T05:54:59;13.87;;;5.70;;
79249;SDS011;68679;51.030;7.584;2023-04-25T05:57:25;16.27;;;6.63;;
79249;SDS011;68679;51.030;7.584;2023-04-25T05:59:52;22.48;;;6.70;;
79249;SDS011;68679;51.030;7.584;2023-04-25T06:02:18;21.70;;;7.50;;
79249;SDS011;68679;51.030;7.584;2023-04-25T06:04:45;18.52;;;7.88;;
79249;SDS011;68679;51.030;7.584;2023-04-25T06:07:11;23.27;;;7.03;;
79249;SDS011;68679;51.030;7.584;2023-04-25T06:09:36;20.90;;;7.70;;
79249;SDS011;68679;51.030;7.584;2023-04-25T06:12:03;20.10;;;7.88;;
79249;SDS011;68679;51.030;7.584;2023-04-25T06:14:29;21.90;;;7.75;;
79249;SDS011;68679;51.030;7.584;2023-04-25T06:16:55;17.02;;;7.05;;
79249;SDS011;68679;51.030;7.584;2023-04-25T06:19:20;18.20;;;6.37;;
79249;SDS011;68679;51.030;7.584;2023-04-25T06:21:46;20.17;;;5.83;;
79249;SDS011;68679;51.030;7.584;2023-04-25T06:24:12;14.85;;;5.65;;
79249;SDS011;68679;51.030;7.584;2023-04-25T06:26:37;11.63;;;5.03;;
79249;SDS011;68679;51.030;7.584;2023-04-25T06:29:02;12.20;;;4.20;;
79249;SDS011;68679;51.030;7.584;2023-04-25T06:31:28;9.23;;;3.93;;
79249;SDS011;68679;51.030;7.584;2023-04-25T06:33:58;11.32;;;3.50;;
79249;SDS011;68679;51.030;7.584;2023-04-25T06:36:23;9.05;;;3.40;;
79249;SDS011;68679;51.030;7.584;2023-04-25T06:38:53;10.02;;;2.80;;
79249;SDS011;68679;51.030;7.584;2023-04-25T06:41:19;5.20;;;2.35;;
79249;SDS011;68679;51.030;7.584;2023-04-25T06:43:44;7.40;;;2.80;;
79249;SDS011;68679;51.030;7.584;2023-04-25T06:46:10;8.23;;;2.63;;
79249;SDS011;68679;51.030;7.584;2023-04-25T06:48:35;12.25;;;2.58;;
79249;SDS011;68679;51.030;7.584;2023-04-25T06:51:01;12.68;;;2.30;;
79249;SDS011;68679;51.030;7.584;2023-04-25T06:53:26;13.32;;;3.40;;
79249;SDS011;68679;51.030;7.584;2023-04-25T06:55:52;8.80;;;2.77;;
79249;SDS011;68679;51.030;7.584;2023-04-25T06:58:17;10.13;;;2.53;;
79249;SDS011;68679;51.030;7.584;2023-04-25T07:00:43;9.73;;;2.80;;
79249;SDS011;68679;51.030;7.584;2023-04-25T07:03:08;9.80;;;2.83;;
79249;SDS011;68679;51.030;7.584;2023-04-25T07:05:33;10.33;;;2.97;;
79249;SDS011;68679;51.030;7.584;2023-04-25T07:07:58;8.00;;;2.93;;
79249;SDS011;68679;51.030;7.584;2023-04-25T07:10:25;16.92;;;3.97;;
79249;SDS011;68679;51.030;7.584;2023-04-25T07:12:50;10.63;;;3.55;;
79249;SDS011;68679;51.030;7.584;2023-04-25T07:15:16;10.40;;;3.55;;
79249;SDS011;68679;51.030;7.584;2023-04-25T07:17:41;9.30;;;3.53;;
79249;SDS011;68679;51.030;7.584;2023-04-25T07:20:07;6.68;;;3.10;;
79249;SDS011;68679;51.030;7.584;2023-04-25T07:22:34;7.75;;;3.53;;
79249;SDS011;68679;51.030;7.584;2023-04-25T07:24:59;19.50;;;4.27;;
79249;SDS011;68679;51.030;7.584;2023-04-25T07:27:24;14.43;;;4.70;;
79249;SDS011;68679;51.030;7.584;2023-04-25T07:29:50;11.20;;;3.55;;
79249;SDS011;68679;51.030;7.584;2023-04-25T07:32:15;10.10;;;3.40;;
79249;SDS011;68679;51.030;7.584;2023-04-25T07:34:40;12.73;;;3.75;;
79249;SDS011;68679;51.030;7.584;2023-04-25T07:37:06;9.65;;;3.20;;
79249;SDS011;68679;51.030;7.584;2023-04-25T07:39:31;12.05;;;4.38;;
79249;SDS011;68679;51.030;7.584;2023-04-25T07:41:57;9.50;;;3.93;;
79249;SDS011;68679;51.030;7.584;2023-04-25T07:44:23;7.55;;;3.10;;
79249;SDS011;68679;51.030;7.584;2023-04-25T07:46:49;9.45;;;3.55;;
79249;SDS011;68679;51.030;7.584;2023-04-25T07:49:14;10.67;;;3.83;;
79249;SDS011;68679;51.030;7.584;2023-04-25T07:51:40;8.15;;;3.03;;
79249;SDS011;68679;51.030;7.584;2023-04-25T07:54:06;8.57;;;3.30;;
79249;SDS011;68679;51.030;7.584;2023-04-25T07:56:31;12.85;;;3.65;;
79249;SDS011;68679;51.030;7.584;2023-04-25T07:58:57;11.90;;;3.40;;
79249;SDS011;68679;51.030;7.584;2023-04-25T08:01:22;8.85;;;3.85;;
79249;SDS011;68679;51.030;7.584;2023-04-25T08:03:47;10.48;;;3.20;;
79249;SDS011;68679;51.030;7.584;2023-04-25T08:06:13;11.23;;;3.33;;
79249;SDS011;68679;51.030;7.584;2023-04-25T08:08:38;8.97;;;3.70;;
79249;SDS011;68679;51.030;7.584;2023-04-25T08:11:03;7.30;;;3.10;;
79249;SDS011;68679;51.030;7.584;2023-04-25T08:13:29;8.70;;;3.10;;
79249;SDS011;68679;51.030;7.584;2023-04-25T08:15:54;9.63;;;3.40;;
79249;SDS011;68679;51.030;7.584;2023-04-25T08:18:19;8.00;;;3.23;;
79249;SDS011;68679;51.030;7.584;2023-04-25T08:20:45;13.57;;;3.78;;
79249;SDS011;68679;51.030;7.584;2023-04-25T08:23:10;8.93;;;3.33;;
79249;SDS011;68679;51.030;7.584;2023-04-25T08:25:35;11.25;;;3.45;;
79249;SDS011;68679;51.030;7.584;2023-04-25T08:28:01;11.02;;;3.15;;
79249;SDS011;68679;51.030;7.584;2023-04-25T08:30:28;10.60;;;3.45;;
79249;SDS011;68679;51.030;7.584;2023-04-25T08:32:53;7.30;;;2.42;;
79249;SDS011;68679;51.030;7.584;2023-04-25T08:35:19;6.00;;;2.80;;
79249;SDS011;68679;51.030;7.584;2023-04-25T08:37:45;8.43;;;2.40;;
79249;SDS011;68679;51.030;7.584;2023-04-25T08:40:11;5.10;;;2.45;;
79249;SDS011;68679;51.030;7.584;2023-04-25T08:42:39;5.35;;;3.47;;
79249;SDS011;68679;51.030;7.584;2023-04-25T08:45:07;3.83;;;2.00;;
79249;SDS011;68679;51.030;7.584;2023-04-25T08:47:33;6.57;;;2.28;;
79249;SDS011;68679;51.030;7.584;2023-04-25T08:50:03;6.15;;;2.50;;
79249;SDS011;68679;51.030;7.584;2023-04-25T08:52:30;11.57;;;3.10;;
79249;SDS011;68679;51.030;7.584;2023-04-25T08:55:00;10.77;;;3.20;;
79249;SDS011;68679;51.030;7.584;2023-04-25T08:57:27;10.57;;;3.97;;
79249;SDS011;68679;51.030;7.584;2023-04-25T08:59:53;6.47;;;2.47;;
79249;SDS011;68679;51.030;7.584;2023-04-25T09:02:19;7.97;;;2.95;;
79249;SDS011;68679;51.030;7.584;2023-04-25T09:04:45;8.43;;;2.83;;
79249;SDS011;68679;51.030;7.584;2023-04-25T09:07:11;5.45;;;1.77;;
79249;SDS011;68679;51.030;7.584;2023-04-25T09:09:36;7.73;;;2.23;;
79249;SDS011;68679;51.030;7.584;2023-04-25T09:12:02;6.45;;;2.13;;
79249;SDS011;68679;51.030;7.584;2023-04-25T09:14:27;7.60;;;2.17;;
79249;SDS011;68679;51.030;7.584;2023-04-25T09:19:22;7.28;;;2.42;;
79249;SDS011;68679;51.030;7.584;2023-04-25T09:21:51;7.60;;;2.00;;
79249;SDS011;68679;51.030;7.584;2023-04-25T09:24:35;8.25;;;2.08;;
79249;SDS011;68679;51.030;7.584;2023-04-25T09:27:08;6.60;;;2.15;;
79249;SDS011;68679;51.030;7.584;2023-04-25T09:29:36;8.10;;;2.30;;
79249;SDS011;68679;51.030;7.584;2023-04-25T09:34:41;8.05;;;2.72;;
79249;SDS011;68679;51.030;7.584;2023-04-25T09:37:11;4.28;;;2.17;;
79249;SDS011;68679;51.030;7.584;2023-04-25T09:39:37;5.72;;;2.28;;
79249;SDS011;68679;51.030;7.584;2023-04-25T09:42:03;6.93;;;2.28;;
79249;SDS011;68679;51.030;7.584;2023-04-25T09:44:29;4.88;;;1.95;;
79249;SDS011;68679;51.030;7.584;2023-04-25T09:46:55;11.77;;;2.33;;
79249;SDS011;68679;51.030;7.584;2023-04-25T09:49:20;5.87;;;1.90;;
79249;SDS011;68679;51.030;7.584;2023-04-25T09:51:55;7.20;;;2.30;;
79249;SDS011;68679;51.030;7.584;2023-04-25T09:54:22;6.55;;;1.90;;
79249;SDS011;68679;51.030;7.584;2023-04-25T09:56:48;6.15;;;2.15;;
79249;SDS011;68679;51.030;7.584;2023-04-25T09:59:16;5.93;;;1.75;;
79249;SDS011;68679;51.030;7.584;2023-04-25T10:01:44;5.72;;;1.73;;
79249;SDS011;68679;51.030;7.584;2023-04-25T10:04:10;9.77;;;2.17;;
79249;SDS011;68679;51.030;7.584;2023-04-25T10:06:37;8.70;;;2.10;;
79249;SDS011;68679;51.030;7.584;2023-04-25T10:09:03;6.57;;;1.88;;
79249;SDS011;68679;51.030;7.584;2023-04-25T10:11:29;5.43;;;1.70;;
79249;SDS011;68679;51.030;7.584;2023-04-25T10:13:56;11.15;;;2.45;;
79249;SDS011;68679;51.030;7.584;2023-04-25T10:19:10;11.65;;;2.20;;
79249;SDS011;68679;51.030;7.584;2023-04-25T10:21:36;8.20;;;1.75;;
79249;SDS011;68679;51.030;7.584;2023-04-25T10:24:17;9.63;;;2.00;;
79249;SDS011;68679;51.030;7.584;2023-04-25T10:26:44;8.55;;;2.00;;
79249;SDS011;68679;51.030;7.584;2023-04-25T10:29:10;3.42;;;1.20;;
79249;SDS011;68679;51.030;7.584;2023-04-25T10:31:38;5.13;;;1.50;;
79249;SDS011;68679;51.030;7.584;2023-04-25T10:34:10;2.90;;;1.42;;
79249;SDS011;68679;51.030;7.584;2023-04-25T10:36:35;4.80;;;1.60;;
79249;SDS011;68679;51.030;7.584;2023-04-25T10:39:03;3.53;;;1.40;;
79249;SDS011;68679;51.030;7.584;2023-04-25T10:41:32;4.95;;;1.60;;
79249;SDS011;68679;51.030;7.584;2023-04-25T10:44:10;6.10;;;1.80;;
79249;SDS011;68679;51.030;7.584;2023-04-25T10:46:36;6.63;;;1.77;;
79249;SDS011;68679;51.030;7.584;2023-04-25T10:49:02;4.30;;;2.40;;
79249;SDS011;68679;51.030;7.584;2023-04-25T10:51:31;8.73;;;2.10;;
79249;SDS011;68679;51.030;7.584;2023-04-25T10:53:58;5.32;;;1.55;;
79249;SDS011;68679;51.030;7.584;2023-04-25T10:56:36;5.53;;;1.75;;
79249;SDS011;68679;51.030;7.584;2023-04-25T11:01:44;25.33;;;12.65;;
79249;SDS011;68679;51.030;7.584;2023-04-25T11:04:20;4.13;;;1.80;;
79249;SDS011;68679;51.030;7.584;2023-04-25T11:09:17;6.97;;;2.25;;
79249;SDS011;68679;51.030;7.584;2023-04-25T11:11:42;7.93;;;4.33;;
79249;SDS011;68679;51.030;7.584;2023-04-25T11:14:07;6.60;;;1.97;;
79249;SDS011;68679;51.030;7.584;2023-04-25T11:16:33;3.42;;;1.50;;
79249;SDS011;68679;51.030;7.584;2023-04-25T11:18:58;6.18;;;1.50;;
79249;SDS011;68679;51.030;7.584;2023-04-25T11:21:27;8.02;;;1.50;;
79249;SDS011;68679;51.030;7.584;2023-04-25T11:23:53;5.72;;;1.60;;
79249;SDS011;68679;51.030;7.584;2023-04-25T11:26:19;5.45;;;1.75;;
79249;SDS011;68679;51.030;7.584;2023-04-25T11:28:45;7.20;;;1.70;;
79249;SDS011;68679;51.030;7.584;2023-04-25T11:31:11;6.28;;;2.35;;
79249;SDS011;68679;51.030;7.584;2023-04-25T11:33:37;6.45;;;1.92;;
79249;SDS011;68679;51.030;7.584;2023-04-25T11:36:02;8.40;;;1.80;;
79249;SDS011;68679;51.030;7.584;2023-04-25T11:38:28;4.93;;;1.58;;
79249;SDS011;68679;51.030;7.584;2023-04-25T11:40:53;5.65;;;1.80;;
79249;SDS011;68679;51.030;7.584;2023-04-25T11:43:20;5.93;;;1.67;;
79249;SDS011;68679;51.030;7.584;2023-04-25T11:45:47;4.03;;;1.85;;
79249;SDS011;68679;51.030;7.584;2023-04-25T11:48:14;9.77;;;3.80;;
79249;SDS011;68679;51.030;7.584;2023-04-25T11:50:39;3.35;;;1.50;;
79249;SDS011;68679;51.030;7.584;2023-04-25T11:53:05;6.63;;;3.00;;
79249;SDS011;68679;51.030;7.584;2023-04-25T11:55:31;3.90;;;1.33;;
79249;SDS011;68679;51.030;7.584;2023-04-25T11:57:58;9.38;;;1.75;;
79249;SDS011;68679;51.030;7.584;2023-04-25T12:00:25;5.38;;;1.50;;
79249;SDS011;68679;51.030;7.584;2023-04-25T12:02:51;6.70;;;2.53;;
79249;SDS011;68679;51.030;7.584;2023-04-25T12:05:18;7.45;;;1.83;;
79249;SDS011;68679;51.030;7.584;2023-04-25T12:07:45;5.75;;;2.28;;
79249;SDS011;68679;51.030;7.584;2023-04-25T12:10:12;4.82;;;1.63;;
79249;SDS011;68679;51.030;7.584;2023-04-25T12:12:41;8.98;;;2.10;;
79249;SDS011;68679;51.030;7.584;2023-04-25T12:15:08;4.45;;;1.80;;
79249;SDS011;68679;51.030;7.584;2023-04-25T12:17:38;3.53;;;1.55;;
79249;SDS011;68679;51.030;7.584;2023-04-25T12:20:10;6.28;;;2.25;;
79249;SDS011;68679;51.030;7.584;2023-04-25T12:22:40;6.97;;;1.70;;
79249;SDS011;68679;51.030;7.584;2023-04-25T12:25:09;8.38;;;2.28;;
79249;SDS011;68679;51.030;7.584;2023-04-25T12:27:38;7.85;;;3.65;;
79249;SDS011;68679;51.030;7.584;2023-04-25T12:30:07;6.43;;;2.30;;
79249;SDS011;68679;51.030;7.584;2023-04-25T12:32:33;6.40;;;1.70;;
79249;SDS011;68679;51.030;7.584;2023-04-25T12:34:58;7.07;;;1.50;;
79249;SDS011;68679;51.030;7.584;2023-04-25T12:37:23;4.00;;;1.80;;
79249;SDS011;68679;51.030;7.584;2023-04-25T12:39:49;6.00;;;2.10;;
79249;SDS011;68679;51.030;7.584;2023-04-25T12:42:14;4.23;;;1.83;;
79249;SDS011;68679;51.030;7.584;2023-04-25T12:44:39;2.97;;;1.47;;
79249;SDS011;68679;51.030;7.584;2023-04-25T12:47:05;5.05;;;1.67;;
79249;SDS011;68679;51.030;7.584;2023-04-25T12:49:31;5.15;;;2.47;;
79249;SDS011;68679;51.030;7.584;2023-04-25T12:51:57;5.47;;;1.60;;
79249;SDS011;68679;51.030;7.584;2023-04-25T12:54:22;4.05;;;1.55;;
79249;SDS011;68679;51.030;7.584;2023-04-25T12:56:48;4.87;;;2.10;;
79249;SDS011;68679;51.030;7.584;2023-04-25T12:59:13;6.63;;;1.63;;
79249;SDS011;68679;51.030;7.584;2023-04-25T13:01:39;11.70;;;2.00;;
79249;SDS011;68679;51.030;7.584;2023-04-25T13:04:04;4.40;;;1.27;;
79249;SDS011;68679;51.030;7.584;2023-04-25T13:06:29;6.32;;;2.22;;
79249;SDS011;68679;51.030;7.584;2023-04-25T13:08:55;13.23;;;5.60;;
79249;SDS011;68679;51.030;7.584;2023-04-25T13:11:21;15.48;;;6.97;;
79249;SDS011;68679;51.030;7.584;2023-04-25T13:13:46;5.23;;;1.50;;
79249;SDS011;68679;51.030;7.584;2023-04-25T13:16:11;4.40;;;1.70;;
79249;SDS011;68679;51.030;7.584;2023-04-25T13:18:39;7.57;;;2.80;;
79249;SDS011;68679;51.030;7.584;2023-04-25T13:21:06;7.03;;;1.98;;
79249;SDS011;68679;51.030;7.584;2023-04-25T13:23:33;5.68;;;1.67;;
79249;SDS011;68679;51.030;7.584;2023-04-25T13:25:59;8.00;;;2.30;;
79249;SDS011;68679;51.030;7.584;2023-04-25T13:28:26;8.57;;;2.10;;
79249;SDS011;68679;51.030;7.584;2023-04-25T13:30:52;6.28;;;1.80;;
79249;SDS011;68679;51.030;7.584;2023-04-25T13:33:17;8.63;;;2.47;;
79249;SDS011;68679;51.030;7.584;2023-04-25T13:35:45;5.50;;;2.30;;
79249;SDS011;68679;51.030;7.584;2023-04-25T13:38:22;9.73;;;3.50;;
79249;SDS011;68679;51.030;7.584;2023-04-25T13:40:49;6.13;;;1.80;;
79249;SDS011;68679;51.030;7.584;2023-04-25T13:43:16;8.13;;;2.00;;
79249;SDS011;68679;51.030;7.584;2023-04-25T13:45:42;4.05;;;2.45;;
79249;SDS011;68679;51.030;7.584;2023-04-25T13:48:07;4.77;;;1.83;;
79249;SDS011;68679;51.030;7.584;2023-04-25T13:50:33;3.90;;;1.80;;
79249;SDS011;68679;51.030;7.584;2023-04-25T13:52:58;6.00;;;2.00;;
79249;SDS011;68679;51.030;7.584;2023-04-25T13:55:23;7.47;;;1.90;;
79249;SDS011;68679;51.030;7.584;2023-04-25T13:57:49;3.60;;;2.03;;
79249;SDS011;68679;51.030;7.584;2023-04-25T14:00:14;15.07;;;7.70;;
79249;SDS011;68679;51.030;7.584;2023-04-25T14:02:40;6.65;;;2.33;;
79249;SDS011;68679;51.030;7.584;2023-04-25T14:05:05;6.27;;;2.60;;
79249;SDS011;68679;51.030;7.584;2023-04-25T14:07:32;8.10;;;2.03;;
79249;SDS011;68679;51.030;7.584;2023-04-25T14:09:59;9.15;;;2.50;;
79249;SDS011;68679;51.030;7.584;2023-04-25T14:12:25;5.85;;;3.97;;
79249;SDS011;68679;51.030;7.584;2023-04-25T14:14:51;7.20;;;3.08;;
79249;SDS011;68679;51.030;7.584;2023-04-25T14:17:17;3.95;;;1.40;;
79249;SDS011;68679;51.030;7.584;2023-04-25T14:19:43;4.93;;;1.92;;
79249;SDS011;68679;51.030;7.584;2023-04-25T14:22:10;4.50;;;1.65;;
79249;SDS011;68679;51.030;7.584;2023-04-25T14:24:35;3.63;;;2.00;;
79249;SDS011;68679;51.030;7.584;2023-04-25T14:27:01;5.82;;;2.53;;
79249;SDS011;68679;51.030;7.584;2023-04-25T14:29:26;4.87;;;1.97;;
79249;SDS011;68679;51.030;7.584;2023-04-25T14:31:51;5.27;;;1.80;;
79249;SDS011;68679;51.030;7.584;2023-04-25T14:34:18;4.85;;;1.65;;
79249;SDS011;68679;51.030;7.584;2023-04-25T14:36:43;9.33;;;4.50;;
79249;SDS011;68679;51.030;7.584;2023-04-25T14:39:09;5.00;;;2.43;;
79249;SDS011;68679;51.030;7.584;2023-04-25T14:41:35;4.80;;;2.08;;
79249;SDS011;68679;51.030;7.584;2023-04-25T14:44:00;4.13;;;2.10;;
79249;SDS011;68679;51.030;7.584;2023-04-25T14:46:26;5.88;;;1.70;;
79249;SDS011;68679;51.030;7.584;2023-04-25T14:48:51;6.10;;;2.15;;
79249;SDS011;68679;51.030;7.584;2023-04-25T14:51:17;12.02;;;8.52;;